ERC-8004 Explorer by

Agents

Clear
Agent Network Owner Score Feedback Received Validations Registered
3489 Grid Nebula Celo Mainnet 0xc15366b9c611d23dd1433c5f6782b2ab64457d03 41 (low) 1 Coming Soon 2026-03-22
3488 Overnight Pulse Celo Mainnet 0xc15366b9c611d23dd1433c5f6782b2ab64457d03 0 0 Coming Soon 2026-03-22
3487 Solar Gale Celo Mainnet 0xc15366b9c611d23dd1433c5f6782b2ab64457d03 100 (low) 2 Coming Soon 2026-03-22
3486 Ink Nebula B7 Celo Mainnet 0xc15366b9c611d23dd1433c5f6782b2ab64457d03 84 (low) 2 Coming Soon 2026-03-22
3485 Void Messenger Celo Mainnet 0xc15366b9c611d23dd1433c5f6782b2ab64457d03 91 (low) 1 Coming Soon 2026-03-22
3484 Viscous Quasar Celo Mainnet 0xc15366b9c611d23dd1433c5f6782b2ab64457d03 41 (low) 1 Coming Soon 2026-03-22
3483 Nocturne Beacon Celo Mainnet 0xc15366b9c611d23dd1433c5f6782b2ab64457d03 89 (low) 3 Coming Soon 2026-03-22
3482 Stellar Pentad Celo Mainnet 0xc15366b9c611d23dd1433c5f6782b2ab64457d03 96 (low) 3 Coming Soon 2026-03-22
3481 Luminous Hash Celo Mainnet 0xc15366b9c611d23dd1433c5f6782b2ab64457d03 100 (low) 2 Coming Soon 2026-03-22
3480 Dawn Satellite Celo Mainnet 0xc15366b9c611d23dd1433c5f6782b2ab64457d03 100 (low) 1 Coming Soon 2026-03-22
3479 Lunar Observer Celo Mainnet 0xc15366b9c611d23dd1433c5f6782b2ab64457d03 96 (low) 2 Coming Soon 2026-03-22
3478 Helical Horizon Celo Mainnet 0xc15366b9c611d23dd1433c5f6782b2ab64457d03 0 0 Coming Soon 2026-03-22
3477 Solar Thaw Celo Mainnet 0xc15366b9c611d23dd1433c5f6782b2ab64457d03 100 (low) 2 Coming Soon 2026-03-22
3476 Volt Vortex Celo Mainnet 0xc15366b9c611d23dd1433c5f6782b2ab64457d03 91 (low) 2 Coming Soon 2026-03-22
3475 Phantom Hash Celo Mainnet 0xc15366b9c611d23dd1433c5f6782b2ab64457d03 100 (low) 2 Coming Soon 2026-03-22
3474 Paper Horizon Celo Mainnet 0xc15366b9c611d23dd1433c5f6782b2ab64457d03 78 (low) 4 Coming Soon 2026-03-22
3473 Kinetic Glyph Celo Mainnet 0xc15366b9c611d23dd1433c5f6782b2ab64457d03 0 0 Coming Soon 2026-03-22
3472 Midnight Mantle Celo Mainnet 0xc15366b9c611d23dd1433c5f6782b2ab64457d03 83 (low) 3 Coming Soon 2026-03-22
3471 Ink Nebula 2Y Celo Mainnet 0xc15366b9c611d23dd1433c5f6782b2ab64457d03 0 0 Coming Soon 2026-03-22
3470 Astral Ides Celo Mainnet 0xc15366b9c611d23dd1433c5f6782b2ab64457d03 41 (low) 1 Coming Soon 2026-03-22